Latest Weather Observations for North Head

IDN60801

Issued at 7:32 am EDT Sunday 7 February 2016 (issued every 30 minutes, with the page automatically refreshed every 10 minutes)

About weather observations | Map of weather stations | Latest weather observations for NSW | Other Formats
Station Details ID: 066197 Name: NORTH HEAD Lat: -33.82 Lon: 151.30 Height: 90.0 m
Data from the previous 72 hours. | See also: Recent months for locations in New South Wales
Date/Time
EDT
Temp
°C
App
Temp
°C
Dew
Point
Rel
Hum
%
Delta-T
°C
Wind Press
QNH
hPa
Press
MSL
hPa
Rain
since 9 am
mm
Dir
 
Spd
km/h
Gust
km/h
Spd
kts
Gust
kts
07/07:30am - - - - - SSE 7 15 4 8 - - -
07/07:00am - - - - - SE 9 17 5 9 - - -
07/06:30am - - - - - SE 9 15 5 8 - - -
07/06:00am - - - - - SE 11 19 6 10 - - -
07/05:30am - - - - - SE 15 22 8 12 - - -
07/05:00am - - - - - SE 13 20 7 11 - - -
07/04:30am - - - - - SSE 13 20 7 11 - - -
07/04:00am - - - - - SSE 13 22 7 12 - - -
07/03:30am - - - - - SE 11 17 6 9 - - -
07/03:00am - - - - - SSE 13 19 7 10 - - -
07/02:30am - - - - - SSE 13 19 7 10 - - -
07/02:00am - - - - - SE 11 19 6 10 - - -
07/01:30am - - - - - SE 11 22 6 12 - - -
07/01:00am - - - - - SSE 13 20 7 11 - - -
07/12:30am - - - - - SE 15 22 8 12 - - -
07/12:00am - - - - - ESE 15 22 8 12 - - -
 
Date/Time
EDT
Temp
°C
App
Temp
°C
Dew
Point
Rel
Hum
%
Delta-T
°C
Wind Press
QNH
hPa
Press
MSL
hPa
Rain
since 9 am
mm
Dir
 
Spd
km/h
Gust
km/h
Spd
kts
Gust
kts
06/11:30pm - - - - - SE 15 22 8 12 - - -
06/11:00pm - - - - - SE 13 24 7 13 - - -
06/10:30pm - - - - - SSE 15 26 8 14 - - -
06/10:00pm - - - - - SE 15 24 8 13 - - -
06/09:30pm - - - - - SE 15 22 8 12 - - -
06/09:00pm - - - - - SE 17 28 9 15 - - -
06/08:30pm - - - - - SSE 15 22 8 12 - - -
06/08:00pm - - - - - SE 17 24 9 13 - - -
06/07:30pm - - - - - SE 17 26 9 14 - - -
06/07:00pm - - - - - ESE 15 24 8 13 - - -
06/06:30pm - - - - - ESE 15 24 8 13 - - -
06/06:00pm - - - - - SE 15 22 8 12 - - -
06/05:30pm - - - - - SE 20 30 11 16 - - -
06/05:00pm - - - - - ESE 20 28 11 15 - - -
06/04:30pm - - - - - SE 20 33 11 18 - - -
06/04:00pm - - - - - SE 20 33 11 18 - - -
06/03:30pm - - - - - SE 19 28 10 15 - - -
06/03:00pm - - - - - SE 19 30 10 16 - - -
06/02:30pm - - - - - SE 20 32 11 17 - - -
06/02:00pm - - - - - SE 19 32 10 17 - - -
06/01:30pm - - - - - SE 22 33 12 18 - - -
06/01:00pm - - - - - ESE 20 30 11 16 - - -
06/12:30pm - - - - - SE 20 33 11 18 - - -
06/12:00pm - - - - - ESE 17 30 9 16 - - -
06/11:30am - - - - - ESE 19 32 10 17 - - -
06/11:00am - - - - - SE 20 28 11 15 - - -
06/10:30am - - - - - SE 17 28 9 15 - - -
06/10:00am - - - - - SSE 20 32 11 17 - - -
06/09:30am - - - - - SSE 22 37 12 20 - - -
06/09:00am - - - - - SSE 20 32 11 17 - - -
06/08:30am - - - - - SSE 24 35 13 19 - - -
06/08:00am - - - - - SSE 15 24 8 13 - - -
06/07:30am - - - - - SSE 24 37 13 20 - - -
06/07:00am - - - - - SE 28 50 15 27 - - -
06/06:51am - - - - - SSE 28 50 15 27 - - -
06/06:30am - - - - - SSE 22 37 12 20 - - -
06/06:00am - - - - - SSE 22 33 12 18 - - -
06/05:30am - - - - - SSE 24 35 13 19 - - -
06/05:00am - - - - - SSE 26 35 14 19 - - -
06/04:30am - - - - - SSE 24 35 13 19 - - -
06/04:00am - - - - - SSE 26 37 14 20 - - -
06/03:30am - - - - - SSE 26 37 14 20 - - -
06/03:00am - - - - - SSE 28 41 15 22 - - -
06/02:30am - - - - - SSE 28 39 15 21 - - -
06/02:00am - - - - - SSE 28 44 15 24 - - -
06/01:30am - - - - - SSE 30 43 16 23 - - -
06/01:00am - - - - - SSE 26 39 14 21 - - -
06/12:30am - - - - - SSE 28 44 15 24 - - -
06/12:00am - - - - - SSE 28 41 15 22 - - -
 
Date/Time
EDT
Temp
°C
App
Temp
°C
Dew
Point
Rel
Hum
%
Delta-T
°C
Wind Press
QNH
hPa
Press
MSL
hPa
Rain
since 9 am
mm
Dir
 
Spd
km/h
Gust
km/h
Spd
kts
Gust
kts
05/11:30pm - - - - - SSE 28 41 15 22 - - -
05/11:00pm - - - - - SSE 20 30 11 16 - - -
05/10:30pm - - - - - SSE 30 43 16 23 - - -
05/10:01pm - - - - - SSE 33 52 18 28 - - -
05/10:00pm - - - - - SSE 33 48 18 26 - - -
05/09:30pm - - - - - SSE 33 46 18 25 - - -
05/09:00pm - - - - - SSE 33 46 18 25 - - -
05/08:30pm - - - - - SSE 35 46 19 25 - - -
05/08:00pm - - - - - SSE 26 43 14 23 - - -
05/07:30pm - - - - - SSE 32 46 17 25 - - -
05/07:00pm - - - - - SSE 32 50 17 27 - - -
05/06:30pm - - - - - SSE 30 41 16 22 - - -
05/06:00pm - - - - - SSE 32 44 17 24 - - -
05/05:30pm - - - - - SSE 33 44 18 24 - - -
05/05:00pm - - - - - SSE 32 46 17 25 - - -
05/04:30pm - - - - - SSE 30 43 16 23 - - -
05/04:00pm - - - - - SSE 32 46 17 25 - - -
05/03:30pm - - - - - SSE 33 48 18 26 - - -
05/03:15pm - - - - - SSE 28 52 15 28 - - -
05/03:00pm - - - - - SSE 30 44 16 24 - - -
05/02:40pm - - - - - S 28 48 15 26 - - -
05/02:30pm - - - - - SSE 32 46 17 25 - - -
05/02:03pm - - - - - SSE 28 48 15 26 - - -
05/02:00pm - - - - - SSE 30 44 16 24 - - -
05/01:51pm - - - - - SSE 30 48 16 26 - - -
05/01:30pm - - - - - SSE 33 48 18 26 - - -
05/01:00pm - - - - - SSE 32 46 17 25 - - -
05/12:34pm - - - - - SSE 33 54 18 29 - - -
05/12:30pm - - - - - SSE 35 54 19 29 - - -
05/12:18pm - - - - - SSE 32 50 17 27 - - -
05/12:00pm - - - - - SSE 35 48 19 26 - - -
05/11:30am - - - - - SSE 33 50 18 27 - - -
05/11:27am - - - - - SSE 32 50 17 27 - - -
05/11:00am - - - - - S 30 46 16 25 - - -
05/10:47am - - - - - SSE 32 52 17 28 - - -
05/10:30am - - - - - SSE 32 46 17 25 - - -
05/10:12am - - - - - SSE 33 52 18 28 - - -
05/10:00am - - - - - SSE 35 48 19 26 - - -
05/09:30am - - - - - S 32 50 17 27 - - -
05/09:10am - - - - - SSE 30 48 16 26 - - -
05/09:00am - - - - - SSE 39 50 21 27 - - -
05/08:30am - - - - - SSE 33 48 18 26 - - -
05/08:00am - - - - - S 32 44 17 24 - - -
05/07:30am - - - - - S 32 54 17 29 - - -
05/07:00am - - - - - S 32 54 17 29 - - -
05/06:30am - - - - - S 37 57 20 31 - - -
05/06:07am - - - - - S 33 54 18 29 - - -
05/06:00am - - - - - S 35 54 19 29 - - -
05/05:30am - - - - - S 33 56 18 30 - - -
05/05:03am - - - - - SSE 33 52 18 28 - - -
05/05:00am - - - - - SSE 35 50 19 27 - - -
05/04:50am - - - - - SSE 35 54 19 29 - - -
05/04:30am - - - - - SSE 32 43 17 23 - - -
05/04:00am - - - - - SSE 35 54 19 29 - - -
05/03:34am - - - - - SSE 35 54 19 29 - - -
05/03:30am - - - - - SSE 37 52 20 28 - - -
05/03:00am - - - - - SSE 33 48 18 26 - - -
05/02:31am - - - - - SSE 33 52 18 28 - - -
05/02:30am - - - - - SSE 35 52 19 28 - - -
05/02:00am - - - - - S 35 54 19 29 - - -
05/01:30am - - - - - S 35 57 19 31 - - -
05/01:00am - - - - - SSE 30 50 16 27 - - -
05/12:33am - - - - - S 32 50 17 27 - - -
05/12:30am - - - - - S 33 50 18 27 - - -
05/12:09am - - - - - S 33 57 18 31 - - -
05/12:00am - - - - - S 35 48 19 26 - - -
 
Date/Time
EDT
Temp
°C
App
Temp
°C
Dew
Point
Rel
Hum
%
Delta-T
°C
Wind Press
QNH
hPa
Press
MSL
hPa
Rain
since 9 am
mm
Dir
 
Spd
km/h
Gust
km/h
Spd
kts
Gust
kts
04/11:49pm - - - - - SSE 32 57 17 31 - - -
04/11:30pm - - - - - S 32 46 17 25 - - -
04/11:10pm - - - - - S 33 54 18 29 - - -
04/11:00pm - - - - - S 32 48 17 26 - - -
04/10:30pm - - - - - S 37 57 20 31 - - -
04/10:00pm - - - - - S 33 54 18 29 - - -
04/09:30pm - - - - - S 33 57 18 31 - - -
04/09:00pm - - - - - S 32 59 17 32 - - -
04/08:30pm - - - - - S 41 65 22 35 - - -
04/08:01pm - - - - - S 35 63 19 34 - - -
04/08:00pm - - - - - S 35 54 19 29 - - -
04/07:30pm - - - - - S 37 59 20 32 - - -
04/07:00pm - - - - - S 37 61 20 33 - - -
04/06:30pm - - - - - S 39 59 21 32 - - -
04/06:00pm - - - - - S 37 61 20 33 - - -
04/05:30pm - - - - - S 39 59 21 32 - - -
04/05:00pm - - - - - S 39 63 21 34 - - -
04/04:30pm - - - - - S 37 56 20 30 - - -
04/04:00pm - - - - - S 37 57 20 31 - - -
04/03:30pm - - - - - S 33 52 18 28 - - -
04/03:00pm - - - - - S 39 61 21 33 - - -
04/02:30pm - - - - - S 37 70 20 38 - - -
04/02:00pm - - - - - S 35 63 19 34 - - -
04/01:30pm - - - - - S 32 56 17 30 - - -
04/01:00pm - - - - - S 32 50 17 27 - - -
04/12:30pm - - - - - S 35 65 19 35 - - -
04/12:00pm - - - - - S 35 57 19 31 - - -
04/11:35am - - - - - S 28 61 15 33 - - -
04/11:30am - - - - - SSW 22 39 12 21 - - -
04/11:00am - - - - - S 22 39 12 21 - - -
04/10:30am - - - - - SSW 26 44 14 24 - - -
04/10:00am - - - - - SSW 28 44 15 24 - - -
04/09:30am - - - - - SW 22 35 12 19 - - -
04/09:00am - - - - - SW 22 39 12 21 - - -
04/08:30am - - - - - SW 22 39 12 21 - - -
04/08:00am - - - - - SSW 19 39 10 21 - - -

Other Formats:

Comma delimited format used in spreadsheet applications
http://www.bom.gov.au/fwo/IDN60801/IDN60801.95768.axf

JavaScript Object Notation format (JSON) in row-major order
http://www.bom.gov.au/fwo/IDN60801/IDN60801.95768.json